Time;durP1;ratioP1;P1;durP2;ratioP2;P2;SDS_P1;SDS_P2;PMS_P1;PMS_P2;Temp;Humidity;BMP_temperature;BMP_pressure;BME280_temperature;BME280_humidity;BME280_pressure;Samples;Min_cycle;Max_cycle;Signal;HPM_P1;HPM_P2
2022/03/27 00:01:41;;;;;;;;;52.50;40.00;;;;;13.50;41.86;102267.22;5054430;28;45737;-74
2022/03/27 00:04:07;;;;;;;;;47.67;37.33;;;;;13.48;41.61;102261.06;5035999;28;45428;-75
2022/03/27 00:06:32;;;;;;;;;44.25;37.00;;;;;13.41;41.88;102261.81;5033621;28;45347;-75
2022/03/27 00:08:57;;;;;;;;;47.75;37.50;;;;;13.41;42.01;102264.56;5050575;28;45727;-75
2022/03/27 00:11:28;;;;;;;;;52.50;39.50;;;;;13.40;42.03;102271.13;5041079;28;45502;-75
2022/03/27 00:13:57;;;;;;;;;47.50;38.25;;;;;13.37;41.60;102262.41;5054817;28;46314;-75
2022/03/27 00:16:23;;;;;;;;;45.67;36.67;;;;;13.35;42.37;102259.81;5054083;28;45861;-75
2022/03/27 00:18:50;;;;;;;;;46.75;38.50;;;;;13.33;42.63;102266.53;5054301;28;45415;-74
2022/03/27 00:21:16;;;;;;;;;53.50;41.50;;;;;13.32;42.24;102254.63;5054527;28;45385;-73
2022/03/27 00:23:43;;;;;;;;;48.00;35.75;;;;;13.28;41.80;102256.09;5054107;28;46149;-74
2022/03/27 00:26:09;;;;;;;;;47.00;36.50;;;;;13.28;42.38;102252.44;5054275;28;45816;-74
2022/03/27 00:28:35;;;;;;;;;46.50;35.50;;;;;13.27;42.15;102253.53;5054592;28;45690;-74
2022/03/27 00:31:04;;;;;;;;;48.00;38.50;;;;;13.26;42.23;102260.91;5053827;28;45763;-74
2022/03/27 00:33:29;;;;;;;;;49.75;35.75;;;;;13.22;42.33;102243.91;5053592;28;45764;-75
2022/03/27 00:35:55;;;;;;;;;45.75;36.25;;;;;13.23;42.88;102253.91;5053907;28;45410;-74
2022/03/27 00:38:25;;;;;;;;;47.00;36.25;;;;;13.21;42.58;102252.38;5053825;28;45740;-74
2022/03/27 00:40:52;;;;;;;;;43.25;34.75;;;;;13.19;42.38;102266.34;5058862;28;45349;-74
2022/03/27 00:43:20;;;;;;;;;47.75;37.75;;;;;13.18;42.97;102253.59;5073572;28;46161;-73
2022/03/27 00:45:46;;;;;;;;;51.00;39.00;;;;;13.19;42.69;102254.47;5073891;28;45688;-74
2022/03/27 00:48:15;;;;;;;;;47.75;35.00;;;;;13.15;43.05;102251.22;5074089;28;45874;-74
2022/03/27 00:50:41;;;;;;;;;49.75;37.25;;;;;13.14;42.80;102246.75;5055689;28;45481;-74
2022/03/27 00:53:08;;;;;;;;;52.25;35.75;;;;;13.13;42.87;102246.94;5073972;28;45776;-74
2022/03/27 00:55:34;;;;;;;;;49.25;37.00;;;;;13.12;43.35;102259.88;5073735;28;45379;-74
2022/03/27 00:58:01;;;;;;;;;52.00;39.25;;;;;13.12;43.29;102248.00;5072608;28;45671;-74
2022/03/27 01:00:38;;;;;;;;;54.50;40.25;;;;;13.14;43.21;102245.91;5055253;28;45286;-75
2022/03/27 01:03:12;;;;;;;;;50.75;38.50;;;;;13.13;43.41;102249.69;5073270;28;46415;-75
2022/03/27 01:05:39;;;;;;;;;49.00;37.00;;;;;13.13;43.40;102238.66;5073318;28;45683;-74
2022/03/27 01:08:09;;;;;;;;;45.75;34.25;;;;;13.12;43.38;102243.34;5073521;28;45337;-74
2022/03/27 01:10:36;;;;;;;;;50.25;36.25;;;;;13.11;43.36;102247.13;5073999;28;45306;-74
2022/03/27 01:13:08;;;;;;;;;47.50;37.75;;;;;13.09;43.46;102246.47;5033339;28;45291;-75
2022/03/27 01:15:40;;;;;;;;;48.75;35.50;;;;;13.10;43.10;102245.44;5015435;28;45630;-74
2022/03/27 01:18:06;;;;;;;;;52.25;38.50;;;;;13.04;43.78;102243.44;5032807;28;45377;-75
2022/03/27 01:20:34;;;;;;;;;40.75;32.50;;;;;13.05;43.62;102242.38;5032545;28;45730;-75
2022/03/27 01:23:00;;;;;;;;;46.75;37.75;;;;;13.03;43.84;102233.47;5033418;28;46176;-74
2022/03/27 01:25:26;;;;;;;;;48.50;38.50;;;;;12.99;43.73;102232.97;5033709;28;45386;-75
2022/03/27 01:27:51;;;;;;;;;40.00;32.25;;;;;13.00;43.75;102242.09;5033991;28;45469;-75
2022/03/27 01:30:17;;;;;;;;;48.25;35.75;;;;;12.99;43.73;102229.38;5033157;28;45492;-75
2022/03/27 01:32:43;;;;;;;;;48.75;38.00;;;;;12.94;43.88;102227.19;5031886;28;46952;-76
2022/03/27 01:35:10;;;;;;;;;50.50;38.75;;;;;12.95;44.27;102230.78;5033539;28;45906;-75
2022/03/27 01:37:36;;;;;;;;;43.00;35.25;;;;;12.95;44.29;102226.16;5033807;28;45498;-75
2022/03/27 01:40:02;;;;;;;;;48.50;35.50;;;;;12.91;44.25;102229.47;5040808;28;45418;-76
2022/03/27 01:42:28;;;;;;;;;44.75;36.00;;;;;12.85;44.33;102223.66;5072171;28;45963;-75
2022/03/27 01:44:53;;;;;;;;;40.25;33.75;;;;;12.85;44.65;102220.91;5048984;28;45467;-75
2022/03/27 01:47:19;;;;;;;;;49.25;37.00;;;;;12.85;44.72;102220.91;5053244;28;45563;-75
2022/03/27 01:49:45;;;;;;;;;41.75;32.00;;;;;12.85;44.54;102218.16;5032476;28;46849;-74
2022/03/27 01:52:11;;;;;;;;;41.50;32.50;;;;;12.83;44.54;102216.63;5033356;28;46079;-74
2022/03/27 01:54:36;;;;;;;;;45.00;33.75;;;;;12.81;44.55;102213.19;5032989;28;45280;-76
2022/03/27 01:57:03;;;;;;;;;43.00;31.00;;;;;12.82;44.72;102217.69;5033221;28;45542;-75
2022/03/27 01:59:29;;;;;;;;;42.25;33.00;;;;;12.80;44.56;102208.72;5040573;28;45494;-74
2022/03/27 02:01:55;;;;;;;;;44.50;36.25;;;;;12.80;44.29;102211.47;5052220;28;46364;-74
2022/03/27 02:04:20;;;;;;;;;42.25;34.00;;;;;12.77;44.82;102211.84;5034730;28;45567;-74
2022/03/27 02:06:46;;;;;;;;;41.25;31.75;;;;;12.75;44.97;102201.03;5052945;28;45983;-75
2022/03/27 02:09:12;;;;;;;;;45.25;32.50;;;;;12.73;44.82;102192.13;5034860;28;46633;-74
2022/03/27 02:11:40;;;;;;;;;41.00;33.25;;;;;12.70;44.85;102192.50;5041260;28;45677;-75
2022/03/27 02:14:05;;;;;;;;;42.50;32.00;;;;;12.71;44.69;102202.47;5046299;28;45424;-74
2022/03/27 02:16:31;;;;;;;;;43.25;33.75;;;;;12.72;45.33;102201.41;5052072;28;46002;-74
2022/03/27 02:18:56;;;;;;;;;33.67;28.00;;;;;12.70;45.01;102198.84;5050828;28;45368;-74
2022/03/27 02:21:22;;;;;;;;;44.50;31.75;;;;;12.71;45.06;102197.81;5051832;28;46401;-74
2022/03/27 02:23:47;;;;;;;;;41.00;32.75;;;;;12.68;44.94;102208.34;5034362;28;45883;-73
2022/03/27 02:26:13;;;;;;;;;43.00;33.00;;;;;12.70;45.21;102198.00;5034723;28;45529;-74
2022/03/27 02:28:40;;;;;;;;;48.25;33.00;;;;;12.64;45.09;102196.84;5052588;28;45755;-73
2022/03/27 02:31:09;;;;;;;;;35.25;32.00;;;;;12.67;44.97;102201.13;5054091;28;46734;-73
2022/03/27 02:33:35;;;;;;;;;35.75;29.25;;;;;12.67;44.84;102195.63;5055582;28;45544;-73
2022/03/27 02:36:01;;;;;;;;;36.75;31.00;;;;;12.67;45.06;102206.63;5055801;28;45731;-74
2022/03/27 02:38:27;;;;;;;;;32.00;28.00;;;;;12.66;45.04;102204.91;5055253;28;45809;-73
2022/03/27 02:40:53;;;;;;;;;39.50;30.00;;;;;12.62;45.21;102206.31;5060507;28;46016;-73
2022/03/27 02:43:18;;;;;;;;;33.25;30.25;;;;;12.63;45.10;102208.03;5075583;28;45400;-74
2022/03/27 02:45:44;;;;;;;;;40.75;32.75;;;;;12.61;45.88;102202.72;5063074;28;45748;-74
2022/03/27 02:48:09;;;;;;;;;46.25;34.25;;;;;12.60;45.46;102211.19;5051885;28;45723;-72
2022/03/27 02:50:38;;;;;;;;;39.50;31.25;;;;;12.58;45.59;102205.00;5038604;28;45986;-73
2022/03/27 02:53:04;;;;;;;;;46.25;33.00;;;;;12.52;45.28;102193.69;5055582;28;45696;-73
2022/03/27 02:55:30;;;;;;;;;45.50;34.00;;;;;12.51;45.73;102197.50;5055289;28;45534;-74
2022/03/27 02:57:56;;;;;;;;;47.50;35.75;;;;;12.51;45.54;102203.00;5055091;28;45503;-74
2022/03/27 03:00:21;;;;;;;;;44.75;35.75;;;;;12.49;45.77;102205.06;5054851;28;45905;-73
2022/03/27 03:02:47;;;;;;;;;45.25;32.75;;;;;12.46;45.64;102205.44;5055255;28;45544;-75
2022/03/27 03:05:13;;;;;;;;;46.50;34.00;;;;;12.44;45.60;102202.03;5039173;28;45815;-72
2022/03/27 03:07:42;;;;;;;;;43.00;34.00;;;;;12.44;45.87;102207.53;5017560;28;45411;-72
2022/03/27 03:10:09;;;;;;;;;45.25;34.25;;;;;12.41;45.81;102202.41;5035192;28;45648;-73
2022/03/27 03:12:38;;;;;;;;;45.00;32.75;;;;;12.39;45.77;102200.88;5060673;28;45325;-75
2022/03/27 03:15:04;;;;;;;;;40.25;32.00;;;;;12.36;45.92;102202.97;5060852;28;45649;-73
2022/03/27 03:17:30;;;;;;;;;39.75;33.25;;;;;12.33;46.01;102196.97;5055297;28;45809;-74
2022/03/27 03:19:55;;;;;;;;;30.75;24.50;;;;;12.31;46.02;102199.91;5049330;28;45658;-73
2022/03/27 03:22:21;;;;;;;;;36.50;30.25;;;;;12.31;46.02;102207.31;5041658;28;45683;-73
2022/03/27 03:24:50;;;;;;;;;39.25;30.50;;;;;12.31;46.12;102210.06;5034770;28;45380;-74
2022/03/27 03:27:16;;;;;;;;;38.75;31.50;;;;;12.28;46.61;102214.03;5034907;28;45643;-74
2022/03/27 03:29:41;;;;;;;;;39.25;32.50;;;;;12.24;46.14;102211.81;5034671;28;45673;-74
2022/03/27 03:32:07;;;;;;;;;39.25;34.75;;;;;12.21;46.24;102202.03;5034345;28;45239;-74
2022/03/27 03:34:32;;;;;;;;;33.75;25.50;;;;;12.24;46.32;102211.81;5034513;28;45497;-73
2022/03/27 03:36:58;;;;;;;;;42.00;30.00;;;;;12.24;46.58;102211.81;5017089;28;46024;-74
2022/03/27 03:39:24;;;;;;;;;39.75;32.75;;;;;12.22;46.60;102213.91;5036356;28;46482;-73
2022/03/27 03:41:49;;;;;;;;;40.67;30.00;;;;;12.21;46.25;102214.94;5068061;28;45795;-73
2022/03/27 03:44:15;;;;;;;;;35.75;31.50;;;;;12.19;46.52;102206.88;5074670;28;45492;-73
2022/03/27 03:46:40;;;;;;;;;33.33;30.00;;;;;12.18;46.73;102214.28;5074899;28;45649;-74
2022/03/27 03:49:06;;;;;;;;;40.25;32.75;;;;;12.17;46.73;102220.81;5074775;28;46285;-73
2022/03/27 03:51:36;;;;;;;;;38.75;33.50;;;;;12.15;46.85;102209.13;5074786;28;45761;-74
2022/03/27 03:54:03;;;;;;;;;38.25;31.50;;;;;12.15;46.71;102213.78;5074515;28;45609;-74
2022/03/27 03:56:28;;;;;;;;;34.75;30.25;;;;;12.15;47.04;102219.28;5074592;28;45605;-75
2022/03/27 03:58:54;;;;;;;;;36.67;30.33;;;;;12.12;46.80;102212.25;5074517;28;45505;-75
2022/03/27 04:01:19;;;;;;;;;32.75;30.50;;;;;12.06;47.14;102201.97;5073398;28;45794;-72
2022/03/27 04:03:44;;;;;;;;;31.33;27.00;;;;;12.10;47.10;102208.81;5074897;28;45373;-74
2022/03/27 04:06:10;;;;;;;;;29.33;26.33;;;;;12.06;47.13;102209.38;5075046;28;45691;-74
2022/03/27 04:08:36;;;;;;;;;37.67;31.67;;;;;12.08;46.98;102221.91;5074356;28;46122;-75
2022/03/27 04:11:02;;;;;;;;;42.50;32.75;;;;;12.08;46.85;102218.28;5070600;28;45501;-73
2022/03/27 04:13:27;;;;;;;;;34.00;30.00;;;;;12.05;46.94;102219.53;5054291;28;45666;-75
2022/03/27 04:15:53;;;;;;;;;36.75;30.75;;;;;12.00;47.14;102211.81;5053531;28;45646;-72
2022/03/27 04:18:18;;;;;;;;;40.75;30.75;;;;;12.02;47.22;102214.41;5035931;28;46595;-74
2022/03/27 04:20:44;;;;;;;;;40.33;31.67;;;;;11.95;46.99;102217.00;5054174;28;45404;-74
2022/03/27 04:23:09;;;;;;;;;36.67;30.33;;;;;11.94;47.27;102229.03;5054467;28;45649;-72
2022/03/27 04:25:35;;;;;;;;;33.75;30.50;;;;;11.92;47.37;102216.50;5054332;28;45484;-74
2022/03/27 04:28:05;;;;;;;;;36.75;31.00;;;;;11.88;47.90;102217.88;5054193;28;46463;-73
2022/03/27 04:30:30;;;;;;;;;39.25;33.25;;;;;11.85;47.52;102230.09;5053995;28;45406;-73
2022/03/27 04:32:56;;;;;;;;;32.00;28.67;;;;;11.83;47.30;102222.03;5054347;28;45373;-74
2022/03/27 04:35:21;;;;;;;;;37.25;29.50;;;;;11.81;47.72;102223.22;5053311;28;45446;-74
2022/03/27 04:37:47;;;;;;;;;41.75;30.75;;;;;11.80;47.71;102222.41;5053923;28;45360;-75
2022/03/27 04:40:14;;;;;;;;;36.00;30.00;;;;;11.75;47.59;102218.47;5035899;28;45269;-74
2022/03/27 04:42:41;;;;;;;;;42.00;30.67;;;;;11.69;48.16;102214.56;5033129;28;45767;-75
2022/03/27 04:45:07;;;;;;;;;37.50;32.25;;;;;11.71;47.97;102226.22;5034036;28;45390;-73
2022/03/27 04:47:34;;;;;;;;;37.25;32.00;;;;;11.69;48.05;102227.44;5028609;28;46965;-74
2022/03/27 04:49:59;;;;;;;;;38.25;32.75;;;;;11.66;48.63;102235.00;5050714;28;45387;-73
2022/03/27 04:52:25;;;;;;;;;40.00;32.00;;;;;11.63;48.32;102229.00;5050017;28;45917;-73
2022/03/27 04:54:50;;;;;;;;;36.00;30.25;;;;;11.60;48.37;102226.63;5053387;28;45705;-72
2022/03/27 04:57:16;;;;;;;;;37.25;30.00;;;;;11.59;48.13;102233.16;5051019;28;46138;-73
2022/03/27 04:59:41;;;;;;;;;30.50;26.25;;;;;11.56;48.60;102233.53;5031164;28;45481;-74
2022/03/27 05:02:07;;;;;;;;;39.25;30.50;;;;;11.51;48.70;102233.19;5048331;28;45318;-73
2022/03/27 05:04:33;;;;;;;;;43.25;31.50;;;;;11.51;48.92;102233.19;5046876;28;45528;-75
2022/03/27 05:06:58;;;;;;;;;40.25;31.75;;;;;11.48;48.63;102232.53;5050883;28;46046;-74
2022/03/27 05:09:23;;;;;;;;;39.50;30.00;;;;;11.45;48.90;102234.75;5047804;28;45353;-76
2022/03/27 05:11:49;;;;;;;;;34.00;26.50;;;;;11.42;49.21;102236.00;5048034;28;46379;-74
2022/03/27 05:14:14;;;;;;;;;40.75;31.75;;;;;11.38;48.85;102242.03;5044333;28;45295;-74
2022/03/27 05:16:40;;;;;;;;;36.25;30.75;;;;;11.38;49.50;102240.13;5025830;28;46053;-75
2022/03/27 05:19:06;;;;;;;;;41.50;32.75;;;;;11.37;49.75;102246.63;5043457;28;45898;-73
2022/03/27 05:21:33;;;;;;;;;41.25;34.00;;;;;11.36;49.27;102246.81;5038767;28;45649;-73
2022/03/27 05:23:58;;;;;;;;;39.25;32.75;;;;;11.33;49.32;102247.16;5045746;28;47337;-73
2022/03/27 05:26:25;;;;;;;;;41.50;32.75;;;;;11.31;49.64;102255.59;5042775;28;46303;-73
2022/03/27 05:28:50;;;;;;;;;35.00;31.00;;;;;11.28;49.83;102251.28;5038787;28;46037;-72
2022/03/27 05:31:16;;;;;;;;;40.00;29.75;;;;;11.24;49.45;102254.56;5038967;28;45481;-73
2022/03/27 05:33:42;;;;;;;;;39.75;31.50;;;;;11.23;50.05;102253.72;5039354;28;45899;-74
2022/03/27 05:36:09;;;;;;;;;43.25;33.50;;;;;11.21;50.16;102255.81;5038721;28;46014;-72
2022/03/27 05:38:37;;;;;;;;;36.00;32.00;;;;;11.17;49.92;102243.44;5040548;28;46935;-74
2022/03/27 05:41:03;;;;;;;;;42.75;32.00;;;;;11.21;49.89;102260.41;5029019;28;45446;-72
2022/03/27 05:43:29;;;;;;;;;39.75;32.25;;;;;11.19;49.95;102257.84;5038887;28;45567;-73
2022/03/27 05:45:54;;;;;;;;;38.25;33.00;;;;;11.21;50.23;102249.44;5036583;28;46512;-74
2022/03/27 05:48:21;;;;;;;;;34.67;30.00;;;;;11.24;49.74;102254.56;5042007;28;45772;-73
2022/03/27 05:50:47;;;;;;;;;33.50;29.00;;;;;11.25;50.04;102251.66;5043741;28;45429;-73
2022/03/27 05:53:13;;;;;;;;;38.00;33.00;;;;;11.32;49.70;102262.81;5047105;28;45915;-74
2022/03/27 05:55:38;;;;;;;;;40.75;32.50;;;;;11.41;50.00;102256.25;5039951;28;45794;-73
2022/03/27 05:58:04;;;;;;;;;38.00;30.50;;;;;11.49;49.51;102256.19;5046566;28;45421;-73
2022/03/27 06:00:29;;;;;;;;;39.75;32.50;;;;;11.59;48.97;102247.75;5030506;28;45853;-73
2022/03/27 06:02:55;;;;;;;;;39.00;29.75;;;;;11.76;49.09;102261.41;5039899;28;45871;-72
2022/03/27 06:05:24;;;;;;;;;45.50;30.50;;;;;11.92;48.97;102263.22;5030187;28;47507;-73
2022/03/27 06:07:54;;;;;;;;;40.25;32.50;;;;;12.13;48.48;102266.22;5036227;28;45429;-73
2022/03/27 06:10:24;;;;;;;;;35.67;30.33;;;;;12.31;47.93;102257.66;5036335;28;45766;-74
2022/03/27 06:12:51;;;;;;;;;36.25;32.00;;;;;12.57;47.15;102269.34;5034336;28;45697;-74
2022/03/27 06:15:18;;;;;;;;;35.33;30.00;;;;;12.61;46.84;102256.94;5036132;28;45842;-72
2022/03/27 06:17:45;;;;;;;;;34.00;26.00;;;;;12.64;46.72;102268.41;5026822;28;46037;-73
2022/03/27 06:20:15;;;;;;;;;39.25;32.75;;;;;12.80;46.32;102270.19;5039119;28;45484;-72
2022/03/27 06:22:41;;;;;;;;;47.00;34.00;;;;;13.10;46.21;102261.97;5043496;28;45582;-73
2022/03/27 06:25:09;;;;;;;;;36.33;31.67;;;;;13.49;45.02;102269.13;5041797;28;45452;-74
2022/03/27 06:27:35;;;;;;;;;38.33;30.00;;;;;13.84;44.62;102274.88;5042052;28;45733;-73
2022/03/27 06:30:00;;;;;;;;;43.33;33.00;;;;;14.09;43.94;102282.81;5037421;28;45708;-72
2022/03/27 06:32:26;;;;;;;;;30.67;29.00;;;;;14.39;42.83;102280.81;5022453;28;45855;-75
2022/03/27 06:34:56;;;;;;;;;29.00;27.00;;;;;14.77;42.28;102285.22;5020298;28;46749;-73
2022/03/27 06:37:21;;;;;;;;;35.00;29.33;;;;;15.19;41.85;102283.41;5036785;28;45446;-74
2022/03/27 06:39:48;;;;;;;;;42.33;35.00;;;;;15.59;40.80;102271.75;5033384;28;45513;-72
2022/03/27 06:42:14;;;;;;;;;45.67;34.33;;;;;15.99;40.02;102278.34;5038419;28;45742;-72
2022/03/27 06:44:39;;;;;;;;;35.33;29.67;;;;;16.37;38.93;102274.19;5021844;28;47407;-71
2022/03/27 06:47:07;;;;;;;;;36.33;34.00;;;;;16.76;38.58;102276.13;5040681;28;45758;-72
2022/03/27 06:49:32;;;;;;;;;40.33;33.67;;;;;17.17;37.52;102276.16;5036156;28;45404;-72
2022/03/27 06:51:58;;;;;;;;;36.00;28.67;;;;;17.53;36.98;102272.88;5042291;28;45900;-75
2022/03/27 06:54:23;;;;;;;;;31.67;27.00;;;;;17.87;35.81;102261.66;5042596;28;46364;-72
2022/03/27 06:56:48;;;;;;;;;32.67;28.67;;;;;18.32;35.45;102275.53;5045593;28;45756;-71
2022/03/27 06:59:14;;;;;;;;;33.33;28.67;;;;;18.67;35.03;102277.84;5033372;28;45428;-71
2022/03/27 07:04:23;;;;;;;;;32.33;27.00;;;;;19.52;33.54;102273.63;5043311;28;46480;-72
2022/03/27 07:06:51;;;;;;;;;32.33;28.33;;;;;19.88;32.68;102277.50;5028016;28;45797;-73
2022/03/27 07:09:18;;;;;;;;;31.67;29.67;;;;;20.17;32.42;102278.63;5027771;28;45665;-72
2022/03/27 07:11:44;;;;;;;;;25.33;22.67;;;;;20.46;31.79;102270.47;5027635;28;45729;-72
2022/03/27 07:14:12;;;;;;;;;31.00;24.67;;;;;20.77;31.43;102268.53;5007150;28;45430;-73
2022/03/27 07:16:38;;;;;;;;;22.33;17.33;;;;;21.13;30.44;102266.59;5028126;28;46025;-72
2022/03/27 07:19:04;;;;;;;;;29.33;27.33;;;;;21.45;30.44;102267.06;5022376;28;45504;-72
2022/03/27 07:21:29;;;;;;;;;33.67;29.00;;;;;21.77;29.77;102274.22;5026936;28;45518;-73
2022/03/27 07:23:54;;;;;;;;;32.33;26.33;;;;;22.10;29.31;102267.06;5027082;28;46218;-70
2022/03/27 07:26:20;;;;;;;;;34.00;26.33;;;;;22.41;28.54;102273.22;5028379;28;45601;-72
2022/03/27 07:28:45;;;;;;;;;32.00;29.33;;;;;22.65;28.33;102283.19;5029351;28;45538;-72
2022/03/27 07:31:11;;;;;;;;;31.67;25.67;;;;;22.99;27.10;102271.97;5025986;28;45564;-73
2022/03/27 07:33:38;;;;;;;;;26.00;25.33;;;;;22.82;27.81;102277.59;5017684;28;45624;-71
2022/03/27 07:36:04;;;;;;;;;34.00;29.00;;;;;22.17;28.69;102281.69;5026898;28;45762;-73
2022/03/27 07:38:29;;;;;;;;;31.67;25.00;;;;;21.40;29.28;102288.44;5031051;28;45875;-72
2022/03/27 07:40:55;;;;;;;;;26.00;26.00;;;;;20.66;30.49;102291.66;5030461;28;45430;-73
2022/03/27 07:43:21;;;;;;;;;30.33;21.67;;;;;20.06;31.38;102287.78;5029532;28;46041;-73
2022/03/27 07:45:46;;;;;;;;;31.33;24.33;;;;;19.51;31.98;102295.06;5027726;28;45746;-73
2022/03/27 07:48:21;;;;;;;;;33.67;28.00;;;;;19.08;32.81;102292.28;5033680;28;45410;-72
2022/03/27 07:50:54;;;;;;;;;28.00;26.00;;;;;18.65;33.69;102296.66;5039096;28;45466;-72
2022/03/27 07:53:20;;;;;;;;;28.67;25.67;;;;;18.25;34.24;102299.69;5041482;28;45750;-72
2022/03/27 07:55:45;;;;;;;;;37.00;29.33;;;;;17.95;34.51;102298.38;5030579;28;45797;-73
2022/03/27 07:58:11;;;;;;;;;34.33;26.00;;;;;17.67;35.15;102293.09;5030223;28;45869;-74
2022/03/27 08:00:36;;;;;;;;;33.00;27.67;;;;;17.44;35.63;102291.69;5032499;28;45792;-74
2022/03/27 08:03:02;;;;;;;;;32.33;27.00;;;;;17.21;36.26;102286.59;5030839;28;46482;-73
2022/03/27 08:05:27;;;;;;;;;37.67;32.67;;;;;17.03;36.11;102290.03;5030424;28;45660;-73
2022/03/27 08:07:53;;;;;;;;;39.00;33.67;;;;;16.92;36.47;102293.47;5013181;28;45444;-74
2022/03/27 08:10:21;;;;;;;;;30.00;27.67;;;;;16.73;36.84;102295.97;5033065;28;46321;-73
2022/03/27 08:12:47;;;;;;;;;34.00;28.67;;;;;16.60;37.19;102290.41;5029556;28;45864;-73
2022/03/27 08:15:12;;;;;;;;;27.67;24.67;;;;;16.50;37.46;102290.00;5016884;28;45801;-75
2022/03/27 08:17:38;;;;;;;;;27.67;25.67;;;;;16.50;37.88;102290.00;5030605;28;45526;-74
2022/03/27 08:20:05;;;;;;;;;33.33;28.00;;;;;16.45;37.51;102298.91;5026266;28;45468;-73
2022/03/27 08:22:30;;;;;;;;;25.67;22.33;;;;;16.44;37.69;102291.69;5018068;28;47872;-72
2022/03/27 08:24:55;;;;;;;;;34.00;30.33;;;;;16.41;37.32;102283.78;5029805;28;45794;-74
2022/03/27 08:27:21;;;;;;;;;31.67;24.67;;;;;16.41;37.44;102301.25;5012235;28;45860;-73
2022/03/27 08:29:48;;;;;;;;;32.67;27.33;;;;;16.41;37.81;102295.72;5012406;28;45691;-74
2022/03/27 08:32:15;;;;;;;;;31.00;27.33;;;;;16.38;37.55;102293.38;5011790;28;45923;-74
2022/03/27 08:34:43;;;;;;;;;27.00;23.67;;;;;16.38;38.05;102296.13;5012041;28;45461;-74
2022/03/27 08:37:10;;;;;;;;;38.67;30.00;;;;;16.37;37.78;102304.66;5016781;28;45660;-74
2022/03/27 08:39:37;;;;;;;;;33.33;30.33;;;;;16.36;37.57;102292.72;5021221;28;46036;-73
2022/03/27 08:42:06;;;;;;;;;28.33;26.67;;;;;16.37;37.67;102302.72;5047903;28;45448;-74
2022/03/27 08:44:34;;;;;;;;;31.67;27.33;;;;;16.37;37.57;102302.72;5049614;28;45691;-74
2022/03/27 08:47:03;;;;;;;;;35.00;27.33;;;;;16.37;37.50;102305.50;5028154;28;45725;-73
2022/03/27 08:49:37;;;;;;;;;32.00;28.00;;;;;16.24;37.87;102275.00;5012057;28;46369;-74
2022/03/27 08:52:17;;;;;;;;;33.33;29.00;;;;;16.34;38.14;102303.16;5031347;28;45396;-73
2022/03/27 08:55:01;;;;;;;;;29.00;24.33;;;;;16.40;37.94;102301.47;5033601;28;45414;-75
2022/03/27 08:57:39;;;;;;;;;39.00;29.00;;;;;16.51;37.74;102302.75;5015740;28;45760;-75
2022/03/27 09:00:05;;;;;;;;;28.33;22.33;;;;;16.58;37.82;102300.84;5032656;28;45520;-73
2022/03/27 09:02:31;;;;;;;;;43.00;34.00;;;;;16.59;36.97;102295.09;5032909;28;45872;-74
2022/03/27 09:04:59;;;;;;;;;35.00;24.00;;;;;16.66;37.13;102294.25;5032263;28;45710;-74
2022/03/27 09:07:25;;;;;;;;;30.00;24.67;;;;;16.74;37.54;102297.66;5033298;28;45498;-74
2022/03/27 09:09:52;;;;;;;;;31.67;24.00;;;;;16.81;37.04;102311.53;5033540;28;46137;-75
2022/03/27 09:12:20;;;;;;;;;28.33;22.67;;;;;16.97;36.59;102306.66;5032839;28;46554;-73
2022/03/27 09:14:45;;;;;;;;;25.00;24.00;;;;;17.97;34.91;102307.31;5033288;28;45693;-76
2022/03/27 09:17:11;;;;;;;;;29.00;23.00;;;;;19.32;33.13;102302.53;5033519;28;45907;-73
2022/03/27 09:19:44;;;;;;;;;26.67;25.33;;;;;20.72;31.24;102304.63;5021731;28;45617;-74
2022/03/27 09:22:19;;;;;;;;;24.67;21.33;;;;;22.09;29.49;102304.47;5026350;28;45442;-74
2022/03/27 09:24:47;;;;;;;;;27.00;19.33;;;;;23.30;27.64;102306.09;5027049;28;45525;-71
2022/03/27 09:27:14;;;;;;;;;21.00;17.00;;;;;24.34;26.07;102309.13;5028217;28;45752;-76
2022/03/27 09:30:07;;;;;;;;;29.67;22.00;;;;;25.40;25.27;102300.25;5028655;28;45618;-78
2022/03/27 09:32:45;;;;;;;;;26.00;24.00;;;;;26.30;23.77;102293.63;5032320;28;46233;-75
2022/03/27 09:35:13;;;;;;;;;27.67;23.00;;;;;27.02;22.36;102299.34;5030773;28;45446;-73
2022/03/27 09:37:53;;;;;;;;;31.00;26.33;;;;;27.53;21.41;102288.00;5033753;28;45407;-72
2022/03/27 09:40:19;;;;;;;;;32.00;23.67;;;;;28.06;21.03;102298.81;5008735;28;45729;-70
2022/03/27 09:43:07;;;;;;;;;28.00;24.00;;;;;28.46;20.88;102287.53;5035090;28;48140;-77
2022/03/27 09:45:33;;;;;;;;;24.67;24.00;;;;;28.91;20.57;102296.81;5030383;28;45366;-70
2022/03/27 09:48:07;;;;;;;;;25.33;24.33;;;;;29.37;20.31;102293.56;5031179;28;45734;-73
2022/03/27 09:50:36;;;;;;;;;29.33;22.00;;;;;29.71;19.54;102286.94;5030903;28;45418;-72
2022/03/27 09:53:31;;;;;;;;;22.33;21.00;;;;;30.00;19.52;102286.03;5022199;28;46152;-72
2022/03/27 09:55:56;;;;;;;;;25.00;22.33;;;;;30.09;18.91;102289.88;5011280;28;45493;-73
2022/03/27 09:58:45;;;;;;;;;28.00;24.67;;;;;30.17;19.18;102290.34;5011212;28;45287;-71
2022/03/27 10:01:20;;;;;;;;;22.33;20.67;;;;;30.49;18.87;102280.25;4992253;28;46345;-71
2022/03/27 10:03:59;;;;;;;;;27.33;23.00;;;;;30.75;18.57;102283.50;5011063;28;45707;-71
2022/03/27 10:06:37;;;;;;;;;24.00;21.33;;;;;30.99;18.33;102277.75;5028121;28;45724;-73
2022/03/27 10:09:06;;;;;;;;;27.67;21.67;;;;;31.11;17.83;102280.03;5031523;28;45650;-79
2022/03/27 10:11:36;;;;;;;;;24.00;19.67;;;;;31.40;17.97;102276.09;5029756;28;45927;-79
2022/03/27 10:14:04;;;;;;;;;30.67;24.00;;;;;31.51;17.44;102258.56;5031352;28;46348;-78
2022/03/27 10:16:33;;;;;;;;;25.67;22.00;;;;;31.84;17.34;102268.97;5030896;28;45525;-72
2022/03/27 10:19:28;;;;;;;;;25.33;22.00;;;;;31.85;17.87;102268.63;5030627;28;45428;-72
2022/03/27 10:21:55;;;;;;;;;25.67;19.67;;;;;31.81;17.16;102258.25;5030381;28;45714;-77
2022/03/27 10:24:25;;;;;;;;;25.67;25.67;;;;;31.68;17.42;102265.63;5030650;28;46236;-79
2022/03/27 10:26:52;;;;;;;;;25.00;22.67;;;;;31.68;17.46;102271.31;5030545;28;45408;-73
2022/03/27 10:29:17;;;;;;;;;27.00;23.00;;;;;31.76;17.72;102269.72;5028051;28;45478;-78
2022/03/27 10:31:43;;;;;;;;;26.00;24.67;;;;;31.67;16.93;102252.59;5030575;28;45463;-71
2022/03/27 10:34:11;;;;;;;;;24.67;22.67;;;;;31.47;17.76;102254.69;5013453;28;45920;-77
2022/03/27 10:36:51;;;;;;;;;29.67;27.67;;;;;31.44;17.91;102249.63;5013909;28;45427;-73
2022/03/27 10:39:42;;;;;;;;;29.33;24.67;;;;;31.46;17.58;102247.31;5011283;28;45598;-78
2022/03/27 10:42:45;;;;;;;;;27.33;21.67;;;;;31.51;17.67;102241.56;5009712;28;45837;-75
2022/03/27 10:45:13;;;;;;;;;15.00;15.00;;;;;31.64;16.45;102248.38;4996829;28;47338;-73
2022/03/27 10:47:39;;;;;;;;;22.67;19.67;;;;;31.37;16.70;102225.72;5010450;28;46646;-79
2022/03/27 10:50:04;;;;;;;;;30.00;21.67;;;;;31.31;16.64;102230.63;5010395;28;45883;-80
2022/03/27 10:52:36;;;;;;;;;27.00;26.00;;;;;31.08;16.96;102233.34;5016814;28;45751;-78
2022/03/27 10:55:12;;;;;;;;;31.33;27.33;;;;;30.92;16.52;102223.44;5016648;28;46438;-81
2022/03/27 10:57:40;;;;;;;;;34.33;29.00;;;;;30.70;17.21;102221.28;5016122;28;45796;-82
2022/03/27 11:00:10;;;;;;;;;25.67;24.67;;;;;30.38;17.28;102218.09;5014549;28;45412;-78
2022/03/27 11:02:46;;;;;;;;;30.33;27.33;;;;;30.03;18.05;102219.50;5016339;28;45533;-79
2022/03/27 11:05:36;;;;;;;;;26.33;24.67;;;;;29.62;18.08;102209.59;5016258;28;47407;-79
2022/03/27 11:08:14;;;;;;;;;28.33;26.33;;;;;29.20;17.97;102216.88;5034510;28;45351;-80
2022/03/27 11:10:41;;;;;;;;;30.00;26.00;;;;;28.73;18.47;102212.81;5008241;28;45798;-74
2022/03/27 11:13:28;;;;;;;;;25.33;22.67;;;;;28.19;19.37;102201.41;5017184;28;47043;-78
2022/03/27 11:16:08;;;;;;;;;23.33;21.33;;;;;27.70;19.20;102205.06;5027461;28;46234;-73